• Join FlightAware (Why Join?)
  • Login
  • US Flag 
03:27PM EDT


 

Airport Tracker/Info


-or-


 

Live Flight TrackerFlight Track Log ✈ AWE3418 ✈ 11-Apr-2013 ✈ KPHL - KMHT

Flight Track Log - Related Links

Times and Time Zones

All times are in EDT time to prevent confusion due to time zone crossing. See the AWE3418 flight status page for this flight to view local times or setup timezone preferences in your user account.

Time Position Orientation Groundspeed Altitude Reporting Facility
EDT Latitude Longitude Course Direction KTS MPH feet Rate Location/Type
08:14PM 39.8756 -75.2214 37° Northeast 147 169 800  Level FAA TRACON SMA TRACON (SMA)
08:14PM 39.8753 -75.2022 91° East 143 165 1,700 2,220 Climbing FAA TRACON SMA TRACON (SMA)
08:14PM 39.8728 -75.1828 100° East 158 182 2,300 1,620 Climbing FAA TRACON SMA TRACON (SMA)
08:15PM 39.8700 -75.1628 100° East 176 203 2,800 1,020 Climbing FAA TRACON SMA TRACON (SMA)
08:15PM 39.8681 -75.1375 96° East 225 259 3,000 900 Climbing FAA TRACON SMA TRACON (SMA)
08:15PM 39.8647 -75.1136 100° East 254 292 3,400 1,620 Climbing FAA TRACON SMA TRACON (SMA)
08:16PM 39.8167 -74.8891 90° East  Level FlightAware Approximate
08:16PM 39.8578 -75.0739 103° East 271 312 4,100  Level FAA TRACON SMA TRACON (SMA)
08:16PM 39.8525 -75.0436 103° East 277 319 4,900 2,760 Climbing FAA TRACON SMA TRACON (SMA)
08:16PM 39.8458 -75.0050 103° East 282 325 6,000 2,580 Climbing FAA TRACON SMA TRACON (SMA)
08:17PM 39.7978 -74.7721 105° East  Level FlightAware Approximate
08:17PM 39.8403 -74.9769 104° East 284 327 6,700  Level FAA TRACON SMA TRACON (SMA)
08:17PM 39.8344 -74.9453 103° East 289 333 7,400 2,640 Climbing FAA TRACON SMA TRACON (SMA)
08:18PM 39.8111 -74.6723 37° Northeast  Level FlightAware Approximate
08:18PM 39.8208 -74.8664 103° East 310 357 9,300  Level FAA TRACON SMA TRACON (SMA)
08:18PM 39.8147 -74.8325 103° East 311 358 10,100 1,920 Climbing FAA TRACON SMA TRACON (SMA)
08:18PM 39.8086 -74.7997 104° East 313 360 10,600 1,500 Climbing FAA TRACON SMA TRACON (SMA)
08:19PM 39.8843 -74.5991 37° Northeast  Level FlightAware Approximate
08:19PM 39.8025 -74.7519 99° East 342 394 11,100  Level FAA TRACON SMA TRACON (SMA)
08:19PM 39.8089 -74.7139 78° East 353 406 11,800 2,220 Climbing FAA TRACON SMA TRACON (SMA)
08:19PM 39.8289 -74.6822 51° Northeast 357 411 12,600 2,700 Climbing FAA TRACON SMA TRACON (SMA)
08:20PM 39.8594 -74.6528 36° Northeast 358 412 13,600 2,820 Climbing FAA TRACON SMA TRACON (SMA)
08:20PM 39.8842 -74.6278 38° Northeast 361 415 14,500 2,520 Climbing FAA TRACON SMA TRACON (SMA)
08:20PM 39.9092 -74.6031 37° Northeast 365 420 15,300 2,520 Climbing FAA TRACON SMA TRACON (SMA)
08:21PM 39.9403 -74.5728 37° Northeast 366 421 16,200 2,520 Climbing FAA TRACON SMA TRACON (SMA)
08:21PM 39.9661 -74.5472 37° Northeast 370 426 17,000 1,920 Climbing FAA TRACON SMA TRACON (SMA)
08:21PM 39.9919 -74.5214 37° Northeast 375 432 17,500 1,620 Climbing FAA TRACON SMA TRACON (SMA)
08:22PM 40.0183 -74.4950 37° Northeast 385 443 18,100 600 Climbing FAA TRACON SMA TRACON (SMA)
08:22PM 40.0183 -74.4950 360° North 385 443 18,100 2,160 Level FAA TRACON SMA TRACON (SMA)
08:24PM 40.1872 -74.3275 37° Northeast 399 459 22,200 2,640 Climbing New York Center
08:25PM 40.2794 -74.2369 37° Northeast 404 465 24,000 1,740 Climbing New York Center
08:26PM 40.3778 -74.1547 32° Northeast 404 465 25,800 1,020 Climbing New York Center
08:27PM 40.5700 -74.0111 30° Northeast 417 480 27,000 360 Climbing Boston Center
08:28PM 40.6606 -73.9419 30° Northeast 399 459 27,000  Level Boston Center
08:29PM 40.7511 -73.8731 30° Northeast 387 445 27,000  Level Boston Center
08:30PM 40.8436 -73.8036 30° Northeast 380 437 27,000  Level Boston Center
08:32PM 40.9461 -73.7867 North 367 422 27,000  Level Boston Center
08:32PM 41.0481 -73.7942 357° North 361 415 27,000  Level Boston Center
08:33PM 41.1481 -73.7992 358° North 354 407 27,000  Level Boston Center
08:35PM 41.2481 -73.8039 358° North 354 407 27,000  Level Boston Center
08:35PM 41.3522 -73.7922 North 360 414 27,000  Level Boston Center
08:37PM 41.4531 -73.7392 22° Northeast 371 427 27,000  Level Boston Center
08:37PM 41.5494 -73.6911 20° North 377 434 27,000  Level Boston Center
08:38PM 41.6500 -73.6375 22° Northeast 377 434 27,000  Level Boston Center
08:39PM 41.7486 -73.5892 20° North 382 440 27,000  Level Boston Center
08:40PM 41.8469 -73.5381 21° North 382 440 27,000  Level Boston Center
08:41PM 41.9475 -73.4842 22° Northeast 382 440 27,000  Level Boston Center
08:42PM 42.0481 -73.4353 20° North 382 440 27,000 -240 Level Boston Center
08:44PM 42.1486 -73.3669 27° Northeast 387 445 26,500 -1,200 Descending Boston Center
08:45PM 42.2289 -73.2392 50° Northeast 380 437 24,400 -1,920 Descending Boston Center
08:46PM 42.2961 -73.1278 51° Northeast 375 432 22,700 -1,680 Descending Boston Center
08:47PM 42.3636 -73.0106 52° Northeast 377 434 21,100 -1,620 Descending Boston Center
08:48PM 42.4244 -72.9097 51° Northeast 372 428 19,500 -1,080 Descending Boston Center
08:49PM 42.4789 -72.8231 50° Northeast 346 398 19,000 -300 Descending Boston Center
08:50PM 42.5439 -72.7106 52° Northeast 346 398 19,000 -360 Level Boston Center
08:51PM 42.5961 -72.6292 49° Northeast 341 392 18,300 -1,140 Descending Boston Center
08:52PM 42.6525 -72.5333 51° Northeast 328 377 16,800 -1,440 Descending Boston Center
08:53PM 42.7047 -72.4458 51° Northeast 316 364 15,500 -1,380 Descending Boston Center
08:54PM 42.7589 -72.3553 51° Northeast 311 358 14,100 -1,380 Descending Boston Center
08:55PM 42.7983 -72.2478 63° Northeast 296 341 12,700 -1,440 Descending Boston Center
08:56PM 42.8042 -72.1344 86° East 289 333 11,300 -1,320 Descending Boston Center
08:57PM 42.8061 -72.0214 89° East 299 344 10,100 -1,320 Descending Boston Center
08:58PM 42.8014 -71.9139 93° East 293 337 8,700 -1,320 Descending Boston Center
08:59PM 42.7967 -71.8006 93° East 293 337 7,500 -1,320 Descending Boston Center
09:00PM 42.7897 -71.7017 95° East 279 321 6,100 -1,260 Descending Boston Center
09:01PM 42.7786 -71.6083 99° East 264 304 5,000 -1,260 Descending Boston Center
09:02PM 42.7636 -71.5381 106° East 212 244 3,600 -1,500 Descending Boston Center
09:03PM 42.7506 -71.4675 104° East 194 223 2,100 -780 Descending Boston Center
09:04PM 42.7625 -71.4078 75° East 161 185 2,100  Level Boston Center
09:05PM 42.7789 -71.3625 64° Northeast 153 176 2,100 -60 Level Boston Center
09:06PM 42.8247 -71.3728 351° North 122 140 2,000 -240 Descending Boston Center
09:07PM 42.8603 -71.3922 338° Northwest 132 152 1,700 -300 Descending Boston Center